createdAt,value
2022-10-28T00:01:23.498Z,15.65
2022-10-28T00:03:58.401Z,14.73
2022-10-28T00:06:31.387Z,14.00
2022-10-28T00:08:58.483Z,15.90
2022-10-28T00:11:27.127Z,12.52
2022-10-28T00:13:55.067Z,14.82
2022-10-28T00:16:24.815Z,13.32
2022-10-28T00:18:53.959Z,15.10
2022-10-28T00:21:23.843Z,13.75
2022-10-28T00:23:50.827Z,14.45
2022-10-28T00:26:20.105Z,13.45
2022-10-28T00:28:49.316Z,13.85
2022-10-28T00:31:17.095Z,12.52
2022-10-28T00:33:44.097Z,13.55
2022-10-28T00:36:15.320Z,13.75
2022-10-28T00:38:42.986Z,12.93
2022-10-28T00:41:11.055Z,16.17
2022-10-28T00:43:40.522Z,12.30
2022-10-28T00:46:18.738Z,14.35
2022-10-28T00:48:46.861Z,14.90
2022-10-28T00:51:14.217Z,13.50
2022-10-28T00:53:41.160Z,15.45
2022-10-28T00:56:08.769Z,12.02
2022-10-28T00:58:35.746Z,14.57
2022-10-28T01:01:02.704Z,14.80
2022-10-28T01:03:29.737Z,11.70
2022-10-28T01:05:56.658Z,13.07
2022-10-28T01:08:23.528Z,11.88
2022-10-28T01:10:54.182Z,15.07
2022-10-28T01:13:46.625Z,13.32
2022-10-28T01:16:44.562Z,11.88
2022-10-28T01:19:24.761Z,14.23
2022-10-28T01:22:05.622Z,14.23
2022-10-28T01:24:54.883Z,12.18
2022-10-28T01:27:32.075Z,12.25
2022-10-28T01:30:19.092Z,13.68
2022-10-28T01:32:53.992Z,14.50
2022-10-28T01:35:33.226Z,12.68
2022-10-28T01:38:15.230Z,12.35
2022-10-28T01:43:13.395Z,12.45
2022-10-28T01:45:42.146Z,14.32
2022-10-28T01:48:10.016Z,12.55
2022-10-28T01:50:57.644Z,10.82
2022-10-28T01:53:27.310Z,13.98
2022-10-28T01:55:54.808Z,11.35
2022-10-28T01:58:23.953Z,13.43
2022-10-28T02:00:50.916Z,11.35
2022-10-28T02:03:18.059Z,14.00
2022-10-28T02:05:46.097Z,12.85
2022-10-28T02:08:19.231Z,14.18
2022-10-28T02:11:38.460Z,13.15
2022-10-28T02:14:39.483Z,15.60
2022-10-28T02:17:30.689Z,16.02
2022-10-28T02:20:07.553Z,13.23
2022-10-28T02:22:51.011Z,14.73
2022-10-28T02:25:32.757Z,13.90
2022-10-28T02:30:47.189Z,16.52
2022-10-28T02:33:17.682Z,14.30
2022-10-28T02:35:58.971Z,18.80
2022-10-28T02:38:28.105Z,16.08
2022-10-28T02:40:56.888Z,15.20
2022-10-28T02:43:23.846Z,14.32
2022-10-28T02:45:52.947Z,16.70
2022-10-28T02:48:26.297Z,20.42
2022-10-28T02:51:00.687Z,14.23
2022-10-28T02:53:31.586Z,18.25
2022-10-28T02:55:59.774Z,18.85
2022-10-28T02:58:26.720Z,20.90
2022-10-28T03:00:53.756Z,19.70
2022-10-28T03:03:20.733Z,19.75
2022-10-28T03:05:47.592Z,19.00
2022-10-28T03:08:14.515Z,18.33
2022-10-28T03:10:41.354Z,16.65
2022-10-28T03:13:08.263Z,19.77
2022-10-28T03:15:35.356Z,16.52
2022-10-28T03:18:02.417Z,15.55
2022-10-28T03:20:29.783Z,15.85
2022-10-28T03:22:56.912Z,16.38
2022-10-28T03:25:23.890Z,17.25
2022-10-28T03:27:50.828Z,16.10
2022-10-28T03:30:18.766Z,16.85
2022-10-28T03:32:45.659Z,19.02
2022-10-28T03:35:12.687Z,16.88
2022-10-28T03:37:43.370Z,17.10
2022-10-28T03:40:11.379Z,17.42
2022-10-28T03:42:40.414Z,15.93
2022-10-28T03:45:09.029Z,17.50
2022-10-28T03:47:36.093Z,16.75
2022-10-28T03:50:03.121Z,17.00
2022-10-28T03:52:30.170Z,19.83
2022-10-28T03:54:57.029Z,19.55
2022-10-28T03:57:23.997Z,17.60
2022-10-28T03:59:50.871Z,21.38
2022-10-28T04:02:17.926Z,18.25
2022-10-28T04:04:44.937Z,22.88
2022-10-28T04:07:11.863Z,23.30
2022-10-28T04:09:38.805Z,22.13
2022-10-28T04:12:07.510Z,22.02
2022-10-28T04:14:34.399Z,22.23
2022-10-28T04:17:01.329Z,22.10
2022-10-28T04:19:28.222Z,22.70
2022-10-28T04:21:55.281Z,23.80
2022-10-28T04:24:22.212Z,19.65
2022-10-28T04:26:49.103Z,19.10
2022-10-28T04:29:16.050Z,16.88
2022-10-28T04:31:43.049Z,20.42
2022-10-28T04:34:09.955Z,18.88
2022-10-28T04:36:36.921Z,17.13
2022-10-28T04:39:03.916Z,19.35
2022-10-28T04:41:30.809Z,16.27
2022-10-28T04:43:57.652Z,20.13
2022-10-28T04:46:24.615Z,17.00
2022-10-28T04:48:51.616Z,19.13
2022-10-28T04:51:18.519Z,18.70
2022-10-28T04:53:45.385Z,20.83
2022-10-28T04:56:12.308Z,21.17
2022-10-28T04:58:39.794Z,19.33
2022-10-28T05:01:09.423Z,17.05
2022-10-28T05:03:36.513Z,20.00
2022-10-28T05:06:03.439Z,18.13
2022-10-28T05:08:30.343Z,22.52
2022-10-28T05:10:57.223Z,16.35
2022-10-28T05:13:24.152Z,17.77
2022-10-28T05:15:51.170Z,16.13
2022-10-28T05:18:18.181Z,17.77
2022-10-28T05:20:45.136Z,15.38
2022-10-28T05:23:12.093Z,13.77
2022-10-28T05:25:39.039Z,16.35
2022-10-28T05:28:05.914Z,17.10
2022-10-28T05:30:32.788Z,19.88
2022-10-28T05:33:01.840Z,16.10
2022-10-28T05:35:29.890Z,14.32
2022-10-28T05:37:56.919Z,17.85
2022-10-28T05:40:23.897Z,20.65
2022-10-28T05:42:51.006Z,12.73
2022-10-28T05:45:18.230Z,14.55
2022-10-28T05:47:45.937Z,11.23
2022-10-28T05:50:13.829Z,15.52
2022-10-28T05:52:40.919Z,13.40
2022-10-28T05:55:08.101Z,10.60
2022-10-28T05:57:35.989Z,15.07
2022-10-28T06:00:03.304Z,21.85
2022-10-28T06:02:39.527Z,12.38
2022-10-28T06:05:06.664Z,16.05
2022-10-28T06:07:34.881Z,14.65
2022-10-28T06:10:02.446Z,18.42
2022-10-28T06:12:27.869Z,15.40
2022-10-28T06:14:54.856Z,14.30
2022-10-28T06:17:21.982Z,13.93
2022-10-28T06:19:48.920Z,16.10
2022-10-28T06:22:15.798Z,14.52
2022-10-28T06:24:42.751Z,12.95
2022-10-28T06:27:09.609Z,10.75
2022-10-28T06:29:36.540Z,14.48
2022-10-28T06:32:03.714Z,13.85
2022-10-28T06:34:30.622Z,14.25
2022-10-28T06:36:57.690Z,16.10
2022-10-28T06:41:56.453Z,15.02
2022-10-28T06:44:23.378Z,13.13
2022-10-28T06:46:51.777Z,17.45
2022-10-28T06:49:19.139Z,14.40
2022-10-28T06:51:46.032Z,17.55
2022-10-28T06:54:12.949Z,15.55
2022-10-28T06:56:39.874Z,23.15
2022-10-28T06:59:07.842Z,17.23
2022-10-28T07:01:34.847Z,15.20
2022-10-28T07:04:02.024Z,17.90
2022-10-28T07:06:28.935Z,13.30
2022-10-28T07:08:55.844Z,14.13
2022-10-28T07:11:22.827Z,15.20
2022-10-28T07:13:49.779Z,19.80
2022-10-28T07:16:16.689Z,12.48
2022-10-28T07:18:43.819Z,14.18
2022-10-28T07:21:10.732Z,14.68
2022-10-28T07:23:37.669Z,17.98
2022-10-28T07:26:04.740Z,14.10
2022-10-28T07:28:31.806Z,15.32
2022-10-28T07:31:02.608Z,10.73
2022-10-28T07:33:29.735Z,13.20
2022-10-28T07:35:56.605Z,15.63
2022-10-28T07:38:23.566Z,16.20
2022-10-28T07:40:50.715Z,15.75
2022-10-28T07:43:17.687Z,17.42
2022-10-28T07:45:44.551Z,16.80
2022-10-28T07:48:11.440Z,13.65
2022-10-28T07:50:39.891Z,17.10
2022-10-28T07:53:06.897Z,14.82
2022-10-28T07:55:33.828Z,16.65
2022-10-28T07:58:00.724Z,15.93
2022-10-28T08:00:27.598Z,17.52
2022-10-28T08:02:54.613Z,16.55
2022-10-28T08:05:21.513Z,16.35
2022-10-28T08:07:48.554Z,15.93
2022-10-28T08:10:15.638Z,16.63
2022-10-28T08:12:43.090Z,15.82
2022-10-28T08:15:10.709Z,12.23
2022-10-28T08:17:37.783Z,19.73
2022-10-28T08:20:05.734Z,12.63
2022-10-28T08:22:32.625Z,15.00
2022-10-28T08:25:05.641Z,15.05
2022-10-28T08:27:45.445Z,15.90
2022-10-28T08:30:56.735Z,15.88
2022-10-28T08:33:32.158Z,16.13
2022-10-28T08:36:00.617Z,14.38
2022-10-28T08:38:32.826Z,14.82
2022-10-28T08:41:08.825Z,16.83
2022-10-28T08:44:20.670Z,18.05
2022-10-28T08:47:02.978Z,13.48
2022-10-28T08:49:41.727Z,15.85
2022-10-28T08:52:27.299Z,15.68
2022-10-28T08:55:09.278Z,23.58
2022-10-28T08:57:40.998Z,15.50
2022-10-28T09:00:20.260Z,16.60
2022-10-28T09:02:57.862Z,17.73
2022-10-28T09:05:25.922Z,17.60
2022-10-28T09:07:54.045Z,15.77
2022-10-28T09:10:36.254Z,10.95
2022-10-28T09:13:08.632Z,15.82
2022-10-28T09:15:43.109Z,16.02
2022-10-28T09:18:16.213Z,12.65
2022-10-28T09:20:54.157Z,13.13
2022-10-28T09:23:28.704Z,15.43
2022-10-28T09:26:20.705Z,10.13
2022-10-28T09:29:12.374Z,11.27
2022-10-28T09:31:50.269Z,14.10
2022-10-28T09:34:19.673Z,11.07
2022-10-28T09:36:52.849Z,9.63
2022-10-28T09:39:36.130Z,9.65
2022-10-28T09:42:03.717Z,6.50
2022-10-28T09:44:51.311Z,7.93
2022-10-28T09:47:25.853Z,7.00
2022-10-28T09:49:55.947Z,6.03
2022-10-28T09:52:25.391Z,9.35
2022-10-28T09:54:53.808Z,7.38
2022-10-28T09:57:21.298Z,6.97
2022-10-28T09:59:48.691Z,7.45
2022-10-28T10:02:37.352Z,8.77
2022-10-28T10:05:16.824Z,6.40
2022-10-28T10:08:04.190Z,7.00
2022-10-28T10:11:04.431Z,7.30
2022-10-28T10:13:36.897Z,8.35
2022-10-28T10:16:16.108Z,9.13
2022-10-28T10:18:48.698Z,7.13
2022-10-28T10:21:16.891Z,6.25
2022-10-28T10:23:47.715Z,5.97
2022-10-28T10:26:17.286Z,7.63
2022-10-28T10:28:49.313Z,5.32
2022-10-28T10:31:22.545Z,6.72
2022-10-28T10:33:56.652Z,8.75
2022-10-28T10:36:31.970Z,6.70
2022-10-28T10:39:23.040Z,6.70
2022-10-28T10:41:50.234Z,7.05
2022-10-28T10:44:23.530Z,7.95
2022-10-28T10:47:04.914Z,8.68
2022-10-28T10:49:35.189Z,5.20
2022-10-28T10:52:16.789Z,5.07
2022-10-28T10:54:48.731Z,7.05
2022-10-28T11:04:09.125Z,8.00
2022-10-28T11:06:38.657Z,9.05
2022-10-28T11:09:26.970Z,6.50
2022-10-28T11:11:56.016Z,7.80
2022-10-28T11:14:25.635Z,8.02
2022-10-28T11:16:54.019Z,10.23
2022-10-28T11:19:33.962Z,7.70
2022-10-28T11:22:25.133Z,12.45
2022-10-28T11:24:59.002Z,5.73
2022-10-28T11:27:28.850Z,6.97
2022-10-28T11:29:56.208Z,9.00
2022-10-28T11:32:54.464Z,7.10
2022-10-28T11:35:47.614Z,15.90
2022-10-28T11:38:32.794Z,15.70
2022-10-28T11:41:33.686Z,8.68
2022-10-28T11:44:04.930Z,9.35
2022-10-28T11:47:00.876Z,7.53
2022-10-28T11:49:45.044Z,7.40
2022-10-28T11:52:34.560Z,6.80
2022-10-28T11:55:22.532Z,10.90
2022-10-28T12:00:50.527Z,6.82
2022-10-28T12:03:48.642Z,6.53
2022-10-28T12:06:17.156Z,7.47
2022-10-28T12:08:46.979Z,10.20
2022-10-28T12:11:20.061Z,7.05
2022-10-28T12:14:15.658Z,8.48
2022-10-28T12:16:54.626Z,7.90
2022-10-28T12:19:35.196Z,6.20
2022-10-28T12:22:13.471Z,7.60
2022-10-28T12:24:42.307Z,8.40
2022-10-28T12:27:18.241Z,5.88
2022-10-28T12:29:47.911Z,9.60
2022-10-28T12:32:26.787Z,6.57
2022-10-28T12:35:39.584Z,12.30
2022-10-28T12:38:32.692Z,7.18
2022-10-28T12:41:27.879Z,8.02
2022-10-28T12:44:02.044Z,6.15
2022-10-28T12:46:37.951Z,9.98
2022-10-28T12:49:18.076Z,9.23
2022-10-28T12:51:45.287Z,7.50
2022-10-28T12:54:36.618Z,9.68
2022-10-28T12:57:16.461Z,8.95
2022-10-28T13:00:16.142Z,7.50
2022-10-28T13:02:53.898Z,8.25
2022-10-28T13:05:26.708Z,8.70
2022-10-28T13:07:59.873Z,7.07
2022-10-28T13:11:02.707Z,8.82
2022-10-28T13:13:47.549Z,9.15
2022-10-28T13:16:46.103Z,8.10
2022-10-28T13:19:37.618Z,9.70
2022-10-28T13:22:07.595Z,10.35
2022-10-28T13:24:52.911Z,8.35
2022-10-28T13:27:19.864Z,8.30
2022-10-28T13:29:52.907Z,9.93
2022-10-28T13:32:34.058Z,7.28
2022-10-28T13:35:11.976Z,9.02
2022-10-28T13:37:39.620Z,12.55
2022-10-28T13:40:07.156Z,7.45
2022-10-28T13:42:43.113Z,8.45
2022-10-28T13:45:48.993Z,11.25
2022-10-28T13:48:44.057Z,9.55
2022-10-28T13:51:11.149Z,6.35
2022-10-28T13:53:43.875Z,8.07
2022-10-28T13:56:41.755Z,9.07
2022-10-28T13:59:15.167Z,6.25
2022-10-28T14:01:42.374Z,8.82
2022-10-28T14:04:36.701Z,9.85
2022-10-28T14:07:26.796Z,7.30
2022-10-28T14:09:56.937Z,9.82
2022-10-28T14:12:33.362Z,12.30
2022-10-28T14:15:17.992Z,8.23
2022-10-28T14:18:42.302Z,7.53
2022-10-28T14:21:07.469Z,10.18
2022-10-28T14:23:36.560Z,6.13
2022-10-28T14:26:04.932Z,8.55
2022-10-28T14:28:32.200Z,8.77
2022-10-28T14:31:08.179Z,9.18
2022-10-28T14:33:36.474Z,8.13
2022-10-28T14:36:20.203Z,10.60
2022-10-28T14:39:28.423Z,10.32
2022-10-28T14:42:13.605Z,8.60
2022-10-28T14:44:55.113Z,8.85
2022-10-28T14:47:41.726Z,8.10
2022-10-28T14:50:17.713Z,7.38
2022-10-28T14:52:44.670Z,5.72
2022-10-28T14:55:28.761Z,6.82
2022-10-28T14:58:12.988Z,8.73
2022-10-28T15:00:43.232Z,8.32
2022-10-28T15:03:10.994Z,6.97
2022-10-28T15:05:38.058Z,9.05
2022-10-28T15:08:05.340Z,8.13
2022-10-28T15:10:38.265Z,9.82
2022-10-28T15:13:12.708Z,5.13
2022-10-28T15:15:40.026Z,7.10
2022-10-28T15:18:22.759Z,6.18
2022-10-28T15:20:50.212Z,6.22
2022-10-28T15:23:18.612Z,6.78
2022-10-28T15:25:45.686Z,8.07
2022-10-28T15:28:12.960Z,8.40
2022-10-28T15:30:45.996Z,8.98
2022-10-28T15:33:40.576Z,7.20
2022-10-28T15:36:17.712Z,7.32
2022-10-28T15:38:46.117Z,10.32
2022-10-28T15:41:22.177Z,7.45
2022-10-28T15:44:02.402Z,8.45
2022-10-28T15:46:29.670Z,6.88
2022-10-28T15:49:01.716Z,9.80
2022-10-28T15:51:28.992Z,6.75
2022-10-28T15:54:10.309Z,6.75
2022-10-28T15:56:59.884Z,7.82
2022-10-28T15:59:26.878Z,6.25
2022-10-28T16:01:56.427Z,6.63
2022-10-28T16:04:23.481Z,8.00
2022-10-28T16:06:57.593Z,8.48
2022-10-28T16:09:27.525Z,6.93
2022-10-28T16:11:58.110Z,5.95
2022-10-28T16:14:37.981Z,7.00
2022-10-28T16:17:11.091Z,6.95
2022-10-28T16:19:40.228Z,8.18
2022-10-28T16:22:07.222Z,7.57
2022-10-28T16:24:34.229Z,7.60
2022-10-28T16:27:21.272Z,8.02
2022-10-28T16:29:48.859Z,7.07
2022-10-28T16:32:16.410Z,7.57
2022-10-28T16:34:43.478Z,9.50
2022-10-28T16:37:43.344Z,8.65
2022-10-28T16:40:30.814Z,8.30
2022-10-28T16:43:00.469Z,7.53
2022-10-28T16:45:31.023Z,9.48
2022-10-28T16:50:29.258Z,10.07
2022-10-28T16:52:56.634Z,12.32
2022-10-28T16:55:23.643Z,9.30
2022-10-28T16:57:50.557Z,8.68
2022-10-28T17:00:17.949Z,10.13
2022-10-28T17:02:46.888Z,8.27
2022-10-28T17:05:21.755Z,11.88
2022-10-28T17:07:48.806Z,8.82
2022-10-28T17:10:17.049Z,9.77
2022-10-28T17:12:44.040Z,9.70
2022-10-28T17:15:11.173Z,9.27
2022-10-28T17:17:38.130Z,9.35
2022-10-28T17:20:05.842Z,9.30
2022-10-28T17:22:32.997Z,8.60
2022-10-28T17:24:59.987Z,8.57
2022-10-28T17:27:26.937Z,7.85
2022-10-28T17:29:54.002Z,11.95
2022-10-28T17:32:21.207Z,8.40
2022-10-28T17:34:48.177Z,10.05
2022-10-28T17:37:15.344Z,9.10
2022-10-28T17:39:42.604Z,9.73
2022-10-28T17:42:09.875Z,9.60
2022-10-28T17:44:36.877Z,9.45
2022-10-28T17:47:03.845Z,8.38
2022-10-28T17:49:32.750Z,8.38
2022-10-28T17:52:00.059Z,10.05
2022-10-28T17:54:28.137Z,9.50
2022-10-28T17:56:55.287Z,9.35
2022-10-28T17:59:22.414Z,11.20
2022-10-28T18:01:49.701Z,11.10
2022-10-28T18:04:16.990Z,8.05
2022-10-28T18:06:44.378Z,6.78
2022-10-28T18:09:14.308Z,9.77
2022-10-28T18:11:41.438Z,7.43
2022-10-28T18:14:08.505Z,8.02
2022-10-28T18:16:36.484Z,9.60
2022-10-28T18:19:05.094Z,8.15
2022-10-28T18:21:32.121Z,9.95
2022-10-28T18:24:03.944Z,8.75
2022-10-28T18:26:32.579Z,9.80
2022-10-28T18:28:59.602Z,9.07
2022-10-28T18:31:26.624Z,10.45
2022-10-28T18:33:53.572Z,9.60
2022-10-28T18:36:22.390Z,12.30
2022-10-28T18:38:49.604Z,8.70
2022-10-28T18:41:27.237Z,9.68
2022-10-28T18:43:55.162Z,9.05
2022-10-28T18:46:22.262Z,8.10
2022-10-28T18:48:49.354Z,10.70
2022-10-28T18:51:16.389Z,7.88
2022-10-28T18:53:45.001Z,10.45
2022-10-28T18:56:22.647Z,9.93
2022-10-28T18:58:51.501Z,9.63
2022-10-28T19:01:23.541Z,9.77
2022-10-28T19:03:54.633Z,9.98
2022-10-28T19:06:22.195Z,12.98
2022-10-28T19:08:56.204Z,10.68
2022-10-28T19:11:25.932Z,10.40
2022-10-28T19:13:52.978Z,12.35
2022-10-28T19:16:20.074Z,12.68
2022-10-28T19:18:47.002Z,17.60
2022-10-28T19:21:14.843Z,17.20
2022-10-28T19:23:42.404Z,16.75
2022-10-28T19:26:10.203Z,21.75
2022-10-28T19:28:41.201Z,15.90
2022-10-28T19:31:09.723Z,21.02
2022-10-28T19:33:38.385Z,14.07
2022-10-28T19:36:07.873Z,17.67
2022-10-28T19:38:36.810Z,15.57
2022-10-28T19:41:08.462Z,16.25
2022-10-28T19:43:35.798Z,17.05
2022-10-28T19:46:07.418Z,16.35
2022-10-28T19:48:34.480Z,13.50
2022-10-28T19:51:01.497Z,16.27
2022-10-28T19:53:28.627Z,15.50
2022-10-28T19:55:59.598Z,15.27
2022-10-28T19:58:27.009Z,13.00
2022-10-28T20:00:58.430Z,17.58
2022-10-28T20:03:25.448Z,13.73
2022-10-28T20:06:19.344Z,13.90
2022-10-28T20:08:46.607Z,15.25
2022-10-28T20:11:15.522Z,11.85
2022-10-28T20:13:42.556Z,14.00
2022-10-28T20:16:13.614Z,11.27
2022-10-28T20:18:40.736Z,14.35
2022-10-28T20:21:13.720Z,11.70
2022-10-28T20:23:45.084Z,18.92
2022-10-28T20:26:14.611Z,21.15
2022-10-28T20:28:41.646Z,20.73
2022-10-28T20:31:10.376Z,15.98
2022-10-28T20:33:39.457Z,20.40
2022-10-28T20:36:07.606Z,22.25
2022-10-28T20:38:34.561Z,21.33
2022-10-28T20:41:01.592Z,15.02
2022-10-28T20:43:29.305Z,20.80
2022-10-28T20:45:56.835Z,16.88
2022-10-28T20:48:23.810Z,17.95
2022-10-28T20:50:52.501Z,18.45
2022-10-28T20:53:21.831Z,15.32
2022-10-28T20:55:49.704Z,16.48
2022-10-28T20:58:16.801Z,17.55
2022-10-28T21:00:43.702Z,13.10
2022-10-28T21:03:11.521Z,15.18
2022-10-28T21:05:38.622Z,15.35
2022-10-28T21:08:05.540Z,15.88
2022-10-28T21:10:33.902Z,13.13
2022-10-28T21:13:00.924Z,13.88
2022-10-28T21:15:28.164Z,13.57
2022-10-28T21:17:55.409Z,16.33
2022-10-28T21:20:23.226Z,16.13
2022-10-28T21:22:50.167Z,17.92
2022-10-28T21:25:17.072Z,17.00
2022-10-28T21:27:44.037Z,15.65
2022-10-28T21:30:11.709Z,15.93
2022-10-28T21:32:38.716Z,18.02
2022-10-28T21:35:06.172Z,16.35
2022-10-28T21:37:33.624Z,17.42
2022-10-28T21:40:01.125Z,17.90
2022-10-28T21:42:28.210Z,17.25
2022-10-28T21:44:55.117Z,18.45
2022-10-28T21:47:22.109Z,16.30
2022-10-28T21:49:49.120Z,15.18
2022-10-28T21:52:16.818Z,15.95
2022-10-28T21:54:43.894Z,15.95
2022-10-28T21:57:10.878Z,16.10
2022-10-28T21:59:37.804Z,17.70
2022-10-28T22:02:04.975Z,12.35
2022-10-28T22:04:32.059Z,15.15
2022-10-28T22:06:58.970Z,13.85
2022-10-28T22:09:25.927Z,12.57
2022-10-28T22:11:52.940Z,12.18
2022-10-28T22:14:19.885Z,12.38
2022-10-28T22:16:46.840Z,13.68
2022-10-28T22:19:15.477Z,15.35
2022-10-28T22:21:43.513Z,12.65
2022-10-28T22:24:10.401Z,13.38
2022-10-28T22:26:37.405Z,13.15
2022-10-28T22:29:04.351Z,14.70
2022-10-28T22:31:31.847Z,13.73
2022-10-28T22:33:58.889Z,12.65
2022-10-28T22:36:27.660Z,14.05
2022-10-28T22:38:54.625Z,16.40
2022-10-28T22:41:31.260Z,12.98
2022-10-28T22:43:59.352Z,12.82
2022-10-28T22:46:28.117Z,13.73
2022-10-28T22:48:55.197Z,13.18
2022-10-28T22:51:22.301Z,14.45
2022-10-28T22:53:49.395Z,13.30
2022-10-28T22:56:20.132Z,13.10
2022-10-28T22:58:47.822Z,10.90
2022-10-28T23:01:16.653Z,13.32
2022-10-28T23:03:45.201Z,12.80
2022-10-28T23:06:13.249Z,13.73
2022-10-28T23:08:40.790Z,13.45
2022-10-28T23:11:08.148Z,15.30
2022-10-28T23:13:35.389Z,14.63
2022-10-28T23:16:05.794Z,13.43
2022-10-28T23:18:32.840Z,15.57
2022-10-28T23:21:12.907Z,9.70
2022-10-28T23:23:40.395Z,11.68
2022-10-28T23:26:07.689Z,15.90
2022-10-28T23:28:34.656Z,11.07
2022-10-28T23:31:02.450Z,11.32
2022-10-28T23:33:30.303Z,13.65
2022-10-28T23:35:57.596Z,13.90
2022-10-28T23:38:24.577Z,11.90
2022-10-28T23:40:59.042Z,12.70
2022-10-28T23:43:26.584Z,13.05
2022-10-28T23:45:53.571Z,12.00
2022-10-28T23:48:20.738Z,9.45
2022-10-28T23:50:48.004Z,9.45
2022-10-28T23:53:15.084Z,12.57
2022-10-28T23:55:44.324Z,12.77
2022-10-28T23:58:12.249Z,14.60
